sensor_id;sensor_type;location;lat;lon;timestamp;pressure;altitude;pressure_sealevel;temperature;humidity
53522;BME280;39398;48.382;9.802;2023-08-31T00:02:10;93358.47;;;12.26;73.76
53522;BME280;39398;48.382;9.802;2023-08-31T00:07:12;93346.47;;;12.25;74.35
53522;BME280;39398;48.382;9.802;2023-08-31T00:12:15;93364.59;;;12.20;74.60
53522;BME280;39398;48.382;9.802;2023-08-31T00:17:17;93375.50;;;12.40;75.92
53522;BME280;39398;48.382;9.802;2023-08-31T00:22:18;93383.22;;;12.58;75.54
53522;BME280;39398;48.382;9.802;2023-08-31T00:27:21;93386.19;;;12.62;74.90
53522;BME280;39398;48.382;9.802;2023-08-31T00:32:23;93387.19;;;12.61;75.23
53522;BME280;39398;48.382;9.802;2023-08-31T00:37:24;93384.00;;;12.36;75.68
53522;BME280;39398;48.382;9.802;2023-08-31T00:42:27;93385.03;;;11.93;75.58
53522;BME280;39398;48.382;9.802;2023-08-31T00:47:29;93403.38;;;11.68;76.16
53522;BME280;39398;48.382;9.802;2023-08-31T00:52:30;93408.00;;;11.66;76.00
53522;BME280;39398;48.382;9.802;2023-08-31T00:57:33;93410.03;;;11.64;76.18
53522;BME280;39398;48.382;9.802;2023-08-31T01:02:41;93386.72;;;11.87;76.17
53522;BME280;39398;48.382;9.802;2023-08-31T01:07:57;93394.13;;;11.72;74.83
53522;BME280;39398;48.382;9.802;2023-08-31T01:13:03;93385.72;;;11.88;74.93
53522;BME280;39398;48.382;9.802;2023-08-31T01:18:07;93386.63;;;11.94;74.37
53522;BME280;39398;48.382;9.802;2023-08-31T01:23:13;93382.53;;;11.86;73.38
53522;BME280;39398;48.382;9.802;2023-08-31T01:28:18;93378.78;;;11.82;73.29
53522;BME280;39398;48.382;9.802;2023-08-31T01:33:20;93384.59;;;11.96;74.30
53522;BME280;39398;48.382;9.802;2023-08-31T01:38:25;93407.38;;;12.01;73.93
53522;BME280;39398;48.382;9.802;2023-08-31T01:43:30;93400.47;;;11.76;72.99
53522;BME280;39398;48.382;9.802;2023-08-31T01:48:38;93398.00;;;11.81;73.27
53522;BME280;39398;48.382;9.802;2023-08-31T01:53:40;93395.34;;;11.70;74.10
53522;BME280;39398;48.382;9.802;2023-08-31T01:58:43;93402.47;;;11.74;73.80
53522;BME280;39398;48.382;9.802;2023-08-31T02:03:44;93403.81;;;11.83;74.98
53522;BME280;39398;48.382;9.802;2023-08-31T02:08:46;93414.59;;;11.87;74.76
53522;BME280;39398;48.382;9.802;2023-08-31T02:13:49;93413.50;;;11.76;74.18
53522;BME280;39398;48.382;9.802;2023-08-31T02:18:51;93422.19;;;11.70;73.54
53522;BME280;39398;48.382;9.802;2023-08-31T02:23:52;93417.03;;;11.64;74.17
53522;BME280;39398;48.382;9.802;2023-08-31T02:28:55;93424.22;;;11.68;75.46
53522;BME280;39398;48.382;9.802;2023-08-31T02:33:57;93438.25;;;11.67;74.58
53522;BME280;39398;48.382;9.802;2023-08-31T02:38:58;93431.88;;;11.63;75.44
53522;BME280;39398;48.382;9.802;2023-08-31T02:44:01;93429.06;;;11.65;74.93
53522;BME280;39398;48.382;9.802;2023-08-31T02:49:03;93435.47;;;11.62;76.71
53522;BME280;39398;48.382;9.802;2023-08-31T02:54:05;93439.53;;;11.58;76.11
53522;BME280;39398;48.382;9.802;2023-08-31T02:59:07;93434.00;;;11.54;75.42
53522;BME280;39398;48.382;9.802;2023-08-31T03:04:09;93429.56;;;11.55;76.54
53522;BME280;39398;48.382;9.802;2023-08-31T03:09:11;93440.84;;;11.49;75.94
53522;BME280;39398;48.382;9.802;2023-08-31T03:14:13;93448.22;;;11.52;75.93
53522;BME280;39398;48.382;9.802;2023-08-31T03:19:15;93454.88;;;11.48;76.17
53522;BME280;39398;48.382;9.802;2023-08-31T03:24:17;93442.28;;;11.27;76.33
53522;BME280;39398;48.382;9.802;2023-08-31T03:29:19;93435.28;;;11.09;76.71
53522;BME280;39398;48.382;9.802;2023-08-31T03:34:21;93444.44;;;11.11;76.56
53522;BME280;39398;48.382;9.802;2023-08-31T03:39:23;93445.75;;;11.02;77.02
53522;BME280;39398;48.382;9.802;2023-08-31T03:44:26;93443.38;;;11.01;76.75
53522;BME280;39398;48.382;9.802;2023-08-31T03:49:27;93449.22;;;11.14;76.60
53522;BME280;39398;48.382;9.802;2023-08-31T03:54:29;93461.59;;;11.19;76.47
53522;BME280;39398;48.382;9.802;2023-08-31T03:59:32;93470.28;;;11.31;76.97
53522;BME280;39398;48.382;9.802;2023-08-31T04:04:33;93471.34;;;11.24;76.72
53522;BME280;39398;48.382;9.802;2023-08-31T04:09:35;93477.72;;;11.46;78.08
53522;BME280;39398;48.382;9.802;2023-08-31T04:14:38;93474.41;;;11.39;77.31
53522;BME280;39398;48.382;9.802;2023-08-31T04:19:40;93465.44;;;11.35;76.74
53522;BME280;39398;48.382;9.802;2023-08-31T04:24:41;93487.13;;;11.29;76.13
53522;BME280;39398;48.382;9.802;2023-08-31T04:29:44;93480.31;;;11.28;75.94
53522;BME280;39398;48.382;9.802;2023-08-31T04:34:46;93497.16;;;11.25;76.54
53522;BME280;39398;48.382;9.802;2023-08-31T04:39:48;93500.63;;;11.19;76.58
53522;BME280;39398;48.382;9.802;2023-08-31T04:44:50;93503.16;;;11.26;76.69
53522;BME280;39398;48.382;9.802;2023-08-31T04:49:52;93504.75;;;11.27;76.78
53522;BME280;39398;48.382;9.802;2023-08-31T04:54:53;93502.44;;;11.18;76.73
53522;BME280;39398;48.382;9.802;2023-08-31T04:59:56;93505.66;;;11.14;77.23
53522;BME280;39398;48.382;9.802;2023-08-31T05:04:58;93515.88;;;11.15;76.74
53522;BME280;39398;48.382;9.802;2023-08-31T05:10:00;93514.88;;;11.16;76.71
53522;BME280;39398;48.382;9.802;2023-08-31T05:15:03;93517.13;;;11.06;77.02
53522;BME280;39398;48.382;9.802;2023-08-31T05:20:06;93519.19;;;11.04;77.06
53522;BME280;39398;48.382;9.802;2023-08-31T05:25:08;93525.38;;;11.03;75.84
53522;BME280;39398;48.382;9.802;2023-08-31T05:30:11;93526.53;;;11.07;75.97
53522;BME280;39398;48.382;9.802;2023-08-31T05:35:13;93531.31;;;11.10;76.45
53522;BME280;39398;48.382;9.802;2023-08-31T05:40:15;93519.91;;;11.11;75.16
53522;BME280;39398;48.382;9.802;2023-08-31T05:45:18;93519.94;;;11.30;74.87
53522;BME280;39398;48.382;9.802;2023-08-31T05:50:19;93530.25;;;11.79;74.37
53522;BME280;39398;48.382;9.802;2023-08-31T05:55:21;93542.06;;;12.30;73.34
53522;BME280;39398;48.382;9.802;2023-08-31T06:00:24;93560.81;;;12.69;72.53
53522;BME280;39398;48.382;9.802;2023-08-31T06:05:25;93568.34;;;12.47;72.44
53522;BME280;39398;48.382;9.802;2023-08-31T06:10:27;93565.56;;;12.12;72.04
53522;BME280;39398;48.382;9.802;2023-08-31T06:15:30;93567.75;;;11.97;73.49
53522;BME280;39398;48.382;9.802;2023-08-31T06:20:32;93576.28;;;11.85;73.02
53522;BME280;39398;48.382;9.802;2023-08-31T06:25:33;93579.31;;;12.01;72.94
53522;BME280;39398;48.382;9.802;2023-08-31T06:30:36;93575.13;;;12.18;72.42
53522;BME280;39398;48.382;9.802;2023-08-31T06:35:38;93575.31;;;12.35;73.05
53522;BME280;39398;48.382;9.802;2023-08-31T06:40:41;93578.94;;;12.34;73.70
53522;BME280;39398;48.382;9.802;2023-08-31T06:45:44;93589.16;;;12.35;73.97
53522;BME280;39398;48.382;9.802;2023-08-31T06:50:46;93593.97;;;12.50;74.35
53522;BME280;39398;48.382;9.802;2023-08-31T06:55:48;93602.16;;;12.53;73.87
53522;BME280;39398;48.382;9.802;2023-08-31T07:00:51;93598.66;;;12.59;73.65
53522;BME280;39398;48.382;9.802;2023-08-31T07:05:53;93588.94;;;12.67;73.00
53522;BME280;39398;48.382;9.802;2023-08-31T07:10:54;93602.50;;;13.28;71.88
53522;BME280;39398;48.382;9.802;2023-08-31T07:15:57;93616.97;;;13.66;71.63
53522;BME280;39398;48.382;9.802;2023-08-31T07:20:59;93630.66;;;14.43;69.17
53522;BME280;39398;48.382;9.802;2023-08-31T07:26:01;93633.78;;;14.69;68.34
53522;BME280;39398;48.382;9.802;2023-08-31T07:31:04;93625.63;;;14.53;67.04
53522;BME280;39398;48.382;9.802;2023-08-31T07:36:06;93631.16;;;13.93;67.22
53522;BME280;39398;48.382;9.802;2023-08-31T07:41:08;93634.78;;;13.92;67.67
53522;BME280;39398;48.382;9.802;2023-08-31T07:46:11;93641.84;;;14.04;68.83
53522;BME280;39398;48.382;9.802;2023-08-31T07:51:12;93649.44;;;13.82;68.65
53522;BME280;39398;48.382;9.802;2023-08-31T07:56:14;93655.69;;;13.92;67.80
53522;BME280;39398;48.382;9.802;2023-08-31T08:01:17;93655.78;;;13.74;67.12
53522;BME280;39398;48.382;9.802;2023-08-31T08:06:18;93677.06;;;13.89;66.00
53522;BME280;39398;48.382;9.802;2023-08-31T08:11:22;93681.03;;;13.92;65.87
53522;BME280;39398;48.382;9.802;2023-08-31T08:16:25;93674.25;;;14.78;63.78
53522;BME280;39398;48.382;9.802;2023-08-31T08:21:27;93681.44;;;14.71;64.08
53522;BME280;39398;48.382;9.802;2023-08-31T08:26:28;93684.72;;;14.78;60.65
53522;BME280;39398;48.382;9.802;2023-08-31T08:31:31;93684.00;;;14.42;58.30
53522;BME280;39398;48.382;9.802;2023-08-31T08:36:33;93677.16;;;14.53;57.09
53522;BME280;39398;48.382;9.802;2023-08-31T08:41:35;93680.16;;;14.85;55.25
53522;BME280;39398;48.382;9.802;2023-08-31T08:46:39;93696.41;;;14.87;52.46
53522;BME280;39398;48.382;9.802;2023-08-31T08:51:42;93687.31;;;15.80;51.18
53522;BME280;39398;48.382;9.802;2023-08-31T08:56:44;93695.13;;;15.91;48.79
53522;BME280;39398;48.382;9.802;2023-08-31T09:01:47;93703.91;;;15.23;50.11
53522;BME280;39398;48.382;9.802;2023-08-31T09:06:50;93714.28;;;15.75;47.80
53522;BME280;39398;48.382;9.802;2023-08-31T09:11:52;93716.28;;;15.28;49.05
53522;BME280;39398;48.382;9.802;2023-08-31T09:16:56;93725.09;;;14.82;50.43
53522;BME280;39398;48.382;9.802;2023-08-31T09:21:58;93716.53;;;14.98;50.21
53522;BME280;39398;48.382;9.802;2023-08-31T09:26:59;93711.94;;;15.05;49.39
53522;BME280;39398;48.382;9.802;2023-08-31T09:32:03;93710.25;;;15.27;49.22
53522;BME280;39398;48.382;9.802;2023-08-31T09:37:05;93710.41;;;15.21;48.37
53522;BME280;39398;48.382;9.802;2023-08-31T09:42:07;93714.34;;;15.07;47.49
53522;BME280;39398;48.382;9.802;2023-08-31T09:47:11;93710.13;;;15.34;46.14
53522;BME280;39398;48.382;9.802;2023-08-31T09:52:14;93717.28;;;15.67;46.13
53522;BME280;39398;48.382;9.802;2023-08-31T09:57:17;93716.59;;;16.44;46.64
53522;BME280;39398;48.382;9.802;2023-08-31T10:02:31;93722.84;;;16.59;48.07
53522;BME280;39398;48.382;9.802;2023-08-31T10:07:33;93721.13;;;16.87;45.61
53522;BME280;39398;48.382;9.802;2023-08-31T10:12:35;93723.34;;;16.73;43.95
53522;BME280;39398;48.382;9.802;2023-08-31T10:17:39;93732.47;;;15.98;44.25
53522;BME280;39398;48.382;9.802;2023-08-31T10:22:41;93720.53;;;16.41;42.22
53522;BME280;39398;48.382;9.802;2023-08-31T10:27:43;93715.44;;;16.18;41.71
53522;BME280;39398;48.382;9.802;2023-08-31T10:33:02;93726.28;;;16.43;44.12
53522;BME280;39398;48.382;9.802;2023-08-31T10:38:13;93715.34;;;17.06;43.21
53522;BME280;39398;48.382;9.802;2023-08-31T10:43:15;93717.28;;;17.43;42.41
53522;BME280;39398;48.382;9.802;2023-08-31T10:48:19;93721.06;;;17.25;43.52
53522;BME280;39398;48.382;9.802;2023-08-31T10:53:28;93718.38;;;17.20;41.87
53522;BME280;39398;48.382;9.802;2023-08-31T10:58:31;93714.00;;;17.04;43.27
53522;BME280;39398;48.382;9.802;2023-08-31T11:03:57;93721.06;;;16.82;42.96
53522;BME280;39398;48.382;9.802;2023-08-31T11:08:59;93719.63;;;17.39;43.07
53522;BME280;39398;48.382;9.802;2023-08-31T11:14:01;93702.22;;;17.87;39.81
53522;BME280;39398;48.382;9.802;2023-08-31T11:19:04;93713.44;;;17.51;44.38
53522;BME280;39398;48.382;9.802;2023-08-31T11:24:07;93711.09;;;16.45;42.65
53522;BME280;39398;48.382;9.802;2023-08-31T11:29:09;93710.13;;;16.68;43.32
53522;BME280;39398;48.382;9.802;2023-08-31T11:34:13;93709.72;;;16.98;41.02
53522;BME280;39398;48.382;9.802;2023-08-31T11:39:17;93697.38;;;17.74;42.92
53522;BME280;39398;48.382;9.802;2023-08-31T11:44:19;93708.34;;;17.17;43.42
53522;BME280;39398;48.382;9.802;2023-08-31T11:49:22;93696.03;;;17.71;42.43
53522;BME280;39398;48.382;9.802;2023-08-31T11:54:24;93696.34;;;18.12;39.92
53522;BME280;39398;48.382;9.802;2023-08-31T11:59:26;93708.78;;;17.85;38.89
53522;BME280;39398;48.382;9.802;2023-08-31T12:04:29;93706.41;;;17.61;41.46
53522;BME280;39398;48.382;9.802;2023-08-31T12:09:31;93702.44;;;17.54;41.33
53522;BME280;39398;48.382;9.802;2023-08-31T12:14:32;93708.34;;;18.35;37.56
53522;BME280;39398;48.382;9.802;2023-08-31T12:19:38;93709.94;;;18.36;39.62
53522;BME280;39398;48.382;9.802;2023-08-31T12:24:40;93706.97;;;17.36;40.31
53522;BME280;39398;48.382;9.802;2023-08-31T12:29:42;93706.94;;;17.58;42.37
53522;BME280;39398;48.382;9.802;2023-08-31T12:34:45;93710.38;;;18.23;39.29
53522;BME280;39398;48.382;9.802;2023-08-31T12:39:46;93696.53;;;18.37;39.76
53522;BME280;39398;48.382;9.802;2023-08-31T12:44:48;93711.91;;;17.55;45.04
53522;BME280;39398;48.382;9.802;2023-08-31T12:49:51;93700.28;;;16.58;44.29
53522;BME280;39398;48.382;9.802;2023-08-31T12:54:52;93701.38;;;16.62;44.45
53522;BME280;39398;48.382;9.802;2023-08-31T12:59:54;93704.31;;;17.09;42.92
53522;BME280;39398;48.382;9.802;2023-08-31T13:04:57;93710.91;;;17.12;42.44
53522;BME280;39398;48.382;9.802;2023-08-31T13:10:00;93702.88;;;16.75;44.36
53522;BME280;39398;48.382;9.802;2023-08-31T13:15:02;93696.66;;;17.03;43.61
53522;BME280;39398;48.382;9.802;2023-08-31T13:20:06;93700.13;;;17.08;42.12
53522;BME280;39398;48.382;9.802;2023-08-31T13:25:08;93697.84;;;17.17;42.43
53522;BME280;39398;48.382;9.802;2023-08-31T13:30:10;93701.50;;;17.16;43.57
53522;BME280;39398;48.382;9.802;2023-08-31T13:35:14;93711.38;;;17.04;43.20
53522;BME280;39398;48.382;9.802;2023-08-31T13:40:15;93707.81;;;16.93;43.58
53522;BME280;39398;48.382;9.802;2023-08-31T13:45:17;93709.03;;;17.07;42.67
53522;BME280;39398;48.382;9.802;2023-08-31T13:50:20;93705.41;;;17.35;42.42
53522;BME280;39398;48.382;9.802;2023-08-31T13:55:21;93696.28;;;18.02;42.99
53522;BME280;39398;48.382;9.802;2023-08-31T14:00:23;93691.47;;;18.31;39.18
53522;BME280;39398;48.382;9.802;2023-08-31T14:05:26;93695.63;;;18.22;38.53
53522;BME280;39398;48.382;9.802;2023-08-31T14:10:28;93693.34;;;18.35;39.56
53522;BME280;39398;48.382;9.802;2023-08-31T14:15:29;93696.88;;;18.51;39.51
53522;BME280;39398;48.382;9.802;2023-08-31T14:20:33;93696.75;;;18.31;41.70
53522;BME280;39398;48.382;9.802;2023-08-31T14:25:35;93692.19;;;18.58;39.25
53522;BME280;39398;48.382;9.802;2023-08-31T14:30:37;93687.78;;;18.69;39.61
53522;BME280;39398;48.382;9.802;2023-08-31T14:35:40;93695.34;;;18.60;39.65
53522;BME280;39398;48.382;9.802;2023-08-31T14:40:42;93688.06;;;18.72;40.03
53522;BME280;39398;48.382;9.802;2023-08-31T14:45:43;93692.53;;;18.72;40.46
53522;BME280;39398;48.382;9.802;2023-08-31T14:50:46;93683.78;;;18.61;41.51
53522;BME280;39398;48.382;9.802;2023-08-31T14:55:48;93683.69;;;18.51;42.86
53522;BME280;39398;48.382;9.802;2023-08-31T15:00:50;93680.16;;;18.25;43.29
53522;BME280;39398;48.382;9.802;2023-08-31T15:05:53;93692.22;;;18.63;45.37
53522;BME280;39398;48.382;9.802;2023-08-31T15:10:54;93689.50;;;18.53;44.95
53522;BME280;39398;48.382;9.802;2023-08-31T15:15:56;93685.00;;;18.48;45.47
53522;BME280;39398;48.382;9.802;2023-08-31T15:20:59;93699.50;;;18.09;46.89
53522;BME280;39398;48.382;9.802;2023-08-31T15:26:01;93696.28;;;18.44;46.79
53522;BME280;39398;48.382;9.802;2023-08-31T15:31:03;93697.50;;;17.89;47.51
53522;BME280;39398;48.382;9.802;2023-08-31T15:36:07;93700.69;;;17.96;48.00
53522;BME280;39398;48.382;9.802;2023-08-31T15:41:09;93699.28;;;17.84;47.71
53522;BME280;39398;48.382;9.802;2023-08-31T15:46:10;93708.63;;;18.01;47.62
53522;BME280;39398;48.382;9.802;2023-08-31T15:51:13;93709.50;;;17.75;47.88
53522;BME280;39398;48.382;9.802;2023-08-31T15:56:15;93707.69;;;17.81;47.46
53522;BME280;39398;48.382;9.802;2023-08-31T16:01:16;93709.19;;;17.71;48.55
53522;BME280;39398;48.382;9.802;2023-08-31T16:06:19;93709.06;;;17.61;48.48
53522;BME280;39398;48.382;9.802;2023-08-31T16:11:21;93706.84;;;17.21;50.21
53522;BME280;39398;48.382;9.802;2023-08-31T16:16:23;93704.13;;;17.38;50.30
53522;BME280;39398;48.382;9.802;2023-08-31T16:21:26;93703.75;;;17.29;50.24
53522;BME280;39398;48.382;9.802;2023-08-31T16:26:28;93703.97;;;17.23;51.26
53522;BME280;39398;48.382;9.802;2023-08-31T16:31:30;93700.41;;;17.12;50.14
53522;BME280;39398;48.382;9.802;2023-08-31T16:36:33;93701.66;;;17.04;51.54
53522;BME280;39398;48.382;9.802;2023-08-31T16:41:35;93703.00;;;17.07;52.42
53522;BME280;39398;48.382;9.802;2023-08-31T16:46:36;93702.00;;;17.13;51.82
53522;BME280;39398;48.382;9.802;2023-08-31T16:51:40;93700.13;;;16.87;52.11
53522;BME280;39398;48.382;9.802;2023-08-31T16:56:41;93700.25;;;16.97;51.90
53522;BME280;39398;48.382;9.802;2023-08-31T17:01:43;93704.53;;;16.81;51.61
53522;BME280;39398;48.382;9.802;2023-08-31T17:06:46;93699.16;;;16.71;52.10
53522;BME280;39398;48.382;9.802;2023-08-31T17:11:47;93707.44;;;16.63;53.14
53522;BME280;39398;48.382;9.802;2023-08-31T17:16:49;93709.66;;;16.54;53.68
53522;BME280;39398;48.382;9.802;2023-08-31T17:21:52;93695.50;;;16.55;53.80
53522;BME280;39398;48.382;9.802;2023-08-31T17:26:54;93708.69;;;16.60;54.10
53522;BME280;39398;48.382;9.802;2023-08-31T17:31:55;93703.78;;;16.47;54.45
53522;BME280;39398;48.382;9.802;2023-08-31T17:36:58;93703.78;;;16.47;54.30
53522;BME280;39398;48.382;9.802;2023-08-31T17:42:00;93711.09;;;16.45;54.46
53522;BME280;39398;48.382;9.802;2023-08-31T17:47:02;93708.34;;;16.35;55.15
53522;BME280;39398;48.382;9.802;2023-08-31T17:52:05;93711.63;;;16.25;55.60
53522;BME280;39398;48.382;9.802;2023-08-31T17:57:07;93716.69;;;16.32;55.27
53522;BME280;39398;48.382;9.802;2023-08-31T18:02:08;93720.84;;;16.28;57.23
53522;BME280;39398;48.382;9.802;2023-08-31T18:07:11;93727.63;;;16.24;56.37
53522;BME280;39398;48.382;9.802;2023-08-31T18:12:13;93724.34;;;16.33;56.30
53522;BME280;39398;48.382;9.802;2023-08-31T18:17:14;93725.28;;;16.27;57.11
53522;BME280;39398;48.382;9.802;2023-08-31T18:22:17;93741.59;;;16.29;56.57
53522;BME280;39398;48.382;9.802;2023-08-31T18:27:19;93737.06;;;16.25;56.97
53522;BME280;39398;48.382;9.802;2023-08-31T18:32:21;93740.66;;;16.19;59.06
53522;BME280;39398;48.382;9.802;2023-08-31T18:37:24;93760.44;;;16.10;59.15
53522;BME280;39398;48.382;9.802;2023-08-31T18:42:25;93759.34;;;16.05;58.13
53522;BME280;39398;48.382;9.802;2023-08-31T18:47:27;93768.22;;;16.04;58.18
53522;BME280;39398;48.382;9.802;2023-08-31T18:52:30;93771.88;;;16.03;58.30
53522;BME280;39398;48.382;9.802;2023-08-31T18:57:31;93765.03;;;16.02;58.91
53522;BME280;39398;48.382;9.802;2023-08-31T19:02:33;93770.53;;;16.01;58.78
53522;BME280;39398;48.382;9.802;2023-08-31T19:07:36;93782.84;;;16.00;61.15
53522;BME280;39398;48.382;9.802;2023-08-31T19:12:38;93776.47;;;15.96;60.67
53522;BME280;39398;48.382;9.802;2023-08-31T19:17:39;93782.19;;;15.93;60.78
53522;BME280;39398;48.382;9.802;2023-08-31T19:22:44;93785.84;;;15.92;61.08
53522;BME280;39398;48.382;9.802;2023-08-31T19:27:46;93786.34;;;15.89;61.12
53522;BME280;39398;48.382;9.802;2023-08-31T19:32:48;93791.25;;;15.86;60.99
53522;BME280;39398;48.382;9.802;2023-08-31T19:37:51;93800.94;;;15.85;61.09
53522;BME280;39398;48.382;9.802;2023-08-31T19:42:53;93795.59;;;15.80;61.78
53522;BME280;39398;48.382;9.802;2023-08-31T19:47:55;93789.88;;;15.83;61.90
53522;BME280;39398;48.382;9.802;2023-08-31T19:52:58;93801.41;;;15.82;61.12
53522;BME280;39398;48.382;9.802;2023-08-31T19:58:00;93797.75;;;15.83;61.67
53522;BME280;39398;48.382;9.802;2023-08-31T20:03:01;93800.63;;;15.82;62.39
53522;BME280;39398;48.382;9.802;2023-08-31T20:08:05;93801.81;;;15.74;61.25
53522;BME280;39398;48.382;9.802;2023-08-31T20:13:06;93803.84;;;15.72;61.84
53522;BME280;39398;48.382;9.802;2023-08-31T20:18:08;93795.22;;;15.60;61.84
53522;BME280;39398;48.382;9.802;2023-08-31T20:23:11;93806.06;;;15.52;62.61
53522;BME280;39398;48.382;9.802;2023-08-31T20:28:12;93806.66;;;15.42;62.14
53522;BME280;39398;48.382;9.802;2023-08-31T20:33:15;93809.66;;;15.34;63.02
53522;BME280;39398;48.382;9.802;2023-08-31T20:38:18;93808.47;;;15.42;63.23
53522;BME280;39398;48.382;9.802;2023-08-31T20:43:19;93810.34;;;15.41;64.60
53522;BME280;39398;48.382;9.802;2023-08-31T20:48:21;93811.72;;;15.32;63.98
53522;BME280;39398;48.382;9.802;2023-08-31T20:53:24;93815.59;;;15.29;63.26
53522;BME280;39398;48.382;9.802;2023-08-31T20:58:25;93829.25;;;15.31;64.09
53522;BME280;39398;48.382;9.802;2023-08-31T21:03:27;93822.88;;;15.27;63.54
53522;BME280;39398;48.382;9.802;2023-08-31T21:08:30;93814.84;;;15.17;63.87
53522;BME280;39398;48.382;9.802;2023-08-31T21:13:32;93817.78;;;15.09;64.39
53522;BME280;39398;48.382;9.802;2023-08-31T21:18:33;93835.09;;;15.10;64.52
53522;BME280;39398;48.382;9.802;2023-08-31T21:23:36;93832.06;;;15.01;64.93
53522;BME280;39398;48.382;9.802;2023-08-31T21:28:38;93825.56;;;14.81;65.29
53522;BME280;39398;48.382;9.802;2023-08-31T21:33:40;93824.13;;;14.73;64.87
53522;BME280;39398;48.382;9.802;2023-08-31T21:38:43;93825.72;;;14.74;64.15
53522;BME280;39398;48.382;9.802;2023-08-31T21:43:44;93829.91;;;14.87;62.66
53522;BME280;39398;48.382;9.802;2023-08-31T21:48:46;93821.13;;;14.81;62.99
53522;BME280;39398;48.382;9.802;2023-08-31T21:53:52;93815.13;;;14.69;61.26
53522;BME280;39398;48.382;9.802;2023-08-31T21:58:54;93822.84;;;14.76;61.97
53522;BME280;39398;48.382;9.802;2023-08-31T22:03:55;93830.47;;;14.77;61.75
53522;BME280;39398;48.382;9.802;2023-08-31T22:08:58;93843.56;;;14.89;64.26
53522;BME280;39398;48.382;9.802;2023-08-31T22:14:00;93845.59;;;14.75;64.42
53522;BME280;39398;48.382;9.802;2023-08-31T22:19:02;93850.38;;;14.78;65.05
53522;BME280;39398;48.382;9.802;2023-08-31T22:24:05;93843.25;;;14.74;64.60
53522;BME280;39398;48.382;9.802;2023-08-31T22:29:07;93843.91;;;14.57;63.77
53522;BME280;39398;48.382;9.802;2023-08-31T22:34:09;93838.56;;;14.64;64.54
53522;BME280;39398;48.382;9.802;2023-08-31T22:39:12;93838.91;;;14.68;65.77
53522;BME280;39398;48.382;9.802;2023-08-31T22:44:13;93840.38;;;14.63;65.35
53522;BME280;39398;48.382;9.802;2023-08-31T22:49:15;93831.59;;;14.58;66.10
53522;BME280;39398;48.382;9.802;2023-08-31T22:54:19;93833.06;;;14.42;66.26
53522;BME280;39398;48.382;9.802;2023-08-31T22:59:20;93838.72;;;14.27;67.79
53522;BME280;39398;48.382;9.802;2023-08-31T23:04:22;93833.03;;;14.19;68.14
53522;BME280;39398;48.382;9.802;2023-08-31T23:09:25;93812.31;;;14.06;69.79
53522;BME280;39398;48.382;9.802;2023-08-31T23:14:27;93813.22;;;14.11;71.00
53522;BME280;39398;48.382;9.802;2023-08-31T23:19:29;93820.97;;;14.18;70.23
53522;BME280;39398;48.382;9.802;2023-08-31T23:24:32;93816.63;;;14.12;70.04
53522;BME280;39398;48.382;9.802;2023-08-31T23:29:33;93815.09;;;14.22;69.69
53522;BME280;39398;48.382;9.802;2023-08-31T23:34:35;93813.13;;;14.29;70.27
53522;BME280;39398;48.382;9.802;2023-08-31T23:39:38;93814.38;;;14.04;70.32
53522;BME280;39398;48.382;9.802;2023-08-31T23:44:39;93798.47;;;14.17;70.65
53522;BME280;39398;48.382;9.802;2023-08-31T23:49:41;93798.09;;;14.02;70.71
53522;BME280;39398;48.382;9.802;2023-08-31T23:54:44;93783.44;;;14.01;71.43
53522;BME280;39398;48.382;9.802;2023-08-31T23:59:45;93774.78;;;13.88;70.82
